Time;durP1;ratioP1;P1;durP2;ratioP2;P2;SDS_P1;SDS_P2;PMS_P1;PMS_P2;Temp;Humidity;BMP_temperature;BMP_pressure;BME280_temperature;BME280_humidity;BME280_pressure;Samples;Min_cycle;Max_cycle;Signal;HPM_P1;HPM_P2
2022/07/12 00:00:42;;;;;;;1.27;1.17;;;23.00;48.20;;;;;;4886482;29;20533;-62
2022/07/12 00:03:08;;;;;;;1.20;1.10;;;23.10;48.20;;;;;;4884572;29;20189;-62
2022/07/12 00:05:36;;;;;;;1.10;1.00;;;23.00;48.20;;;;;;4887588;29;20187;-58
2022/07/12 00:08:03;;;;;;;1.10;1.00;;;23.00;48.20;;;;;;4894388;29;20434;-59
2022/07/12 00:10:29;;;;;;;1.13;1.03;;;23.10;48.20;;;;;;4886814;29;20486;-62
2022/07/12 00:12:57;;;;;;;1.30;1.20;;;23.10;48.20;;;;;;4885469;29;20451;-57
2022/07/12 00:15:24;;;;;;;1.13;1.00;;;23.10;48.20;;;;;;4885672;29;20446;-60
2022/07/12 00:17:52;;;;;;;1.10;1.00;;;23.10;49.00;;;;;;4885911;29;20486;-58
2022/07/12 00:20:18;;;;;;;1.00;1.00;;;23.10;48.20;;;;;;4886487;29;20513;-59
2022/07/12 00:22:43;;;;;;;1.30;1.20;;;23.00;48.20;;;;;;4888869;29;20518;-64
2022/07/12 00:25:10;;;;;;;1.00;1.00;;;23.10;48.20;;;;;;4889316;29;20184;-63
2022/07/12 00:27:36;;;;;;;0.90;0.90;;;23.00;48.10;;;;;;4889352;29;20191;-58
2022/07/12 00:30:04;;;;;;;1.17;1.07;;;23.10;48.20;;;;;;4886180;29;20809;-62
2022/07/12 00:32:30;;;;;;;1.20;1.10;;;23.10;48.20;;;;;;4885262;29;20926;-58
2022/07/12 00:34:57;;;;;;;1.10;1.00;;;23.00;48.10;;;;;;4889270;29;20780;-59
2022/07/12 00:37:24;;;;;;;0.97;0.97;;;23.00;48.20;;;;;;4884130;29;20470;-57
2022/07/12 00:39:51;;;;;;;1.10;1.10;;;23.10;48.20;;;;;;4889546;29;20849;-58
2022/07/12 00:42:18;;;;;;;1.00;1.00;;;23.00;48.10;;;;;;4893907;29;20464;-58
2022/07/12 00:44:45;;;;;;;1.20;1.10;;;23.00;48.10;;;;;;4887098;29;20460;-60
2022/07/12 00:47:27;;;;;;;0.90;0.90;;;23.10;48.20;;;;;;4885455;29;20430;-57
2022/07/12 00:49:54;;;;;;;1.30;1.20;;;23.00;48.10;;;;;;4884540;29;20447;-57
2022/07/12 00:52:20;;;;;;;0.90;0.90;;;23.00;48.10;;;;;;4885092;29;20427;-64
2022/07/12 00:54:46;;;;;;;1.03;0.93;;;23.10;48.20;;;;;;4886302;29;20431;-62
2022/07/12 00:57:13;;;;;;;1.10;1.00;;;23.00;48.10;;;;;;4886707;29;20826;-62
2022/07/12 00:59:39;;;;;;;1.20;1.10;;;23.10;48.20;;;;;;4887615;29;20473;-57
2022/07/12 01:02:06;;;;;;;1.00;1.00;;;23.00;48.20;;;;;;4884995;29;20523;-57
2022/07/12 01:04:33;;;;;;;0.93;0.90;;;23.00;48.20;;;;;;4883459;29;20203;-57
2022/07/12 01:06:59;;;;;;;1.03;1.00;;;23.00;48.20;;;;;;4884653;29;20467;-57
2022/07/12 01:09:25;;;;;;;0.93;0.93;;;23.00;48.10;;;;;;4888784;29;20522;-57
2022/07/12 01:11:51;;;;;;;1.00;1.00;;;23.00;48.20;;;;;;4885986;29;20188;-59
2022/07/12 01:14:17;;;;;;;1.10;1.00;;;23.00;48.20;;;;;;4883165;29;20447;-59
2022/07/12 01:16:44;;;;;;;1.07;1.00;;;23.10;48.20;;;;;;4887615;29;20303;-58
2022/07/12 01:19:19;;;;;;;0.90;0.90;;;23.00;48.30;;;;;;4887256;29;20446;-56
2022/07/12 01:21:50;;;;;;;1.00;1.00;;;23.00;48.20;;;;;;4886834;29;20929;-63
2022/07/12 01:24:18;;;;;;;1.10;1.00;;;23.00;48.20;;;;;;4883439;29;20435;-61
2022/07/12 01:26:48;;;;;;;1.10;1.00;;;23.00;48.20;;;;;;4887246;29;20486;-62
2022/07/12 01:29:14;;;;;;;1.20;1.10;;;23.00;48.20;;;;;;4874223;29;20796;-57
2022/07/12 01:31:41;;;;;;;0.90;0.90;;;23.00;48.20;;;;;;4889830;29;20535;-59
2022/07/12 01:34:08;;;;;;;0.90;0.90;;;23.00;48.20;;;;;;4888663;29;20436;-58
2022/07/12 01:36:34;;;;;;;0.90;0.90;;;23.00;48.20;;;;;;4887085;29;20470;-57
2022/07/12 01:39:00;;;;;;;1.20;1.10;;;23.00;48.10;;;;;;4883090;29;20926;-59
2022/07/12 01:41:27;;;;;;;0.90;0.90;;;23.00;48.10;;;;;;4889405;29;20875;-57
2022/07/12 01:43:53;;;;;;;1.00;1.00;;;23.00;48.20;;;;;;4885581;29;20530;-57
2022/07/12 01:46:19;;;;;;;0.90;0.90;;;23.00;48.20;;;;;;4888441;29;20446;-57
2022/07/12 01:48:46;;;;;;;0.97;0.97;;;23.00;48.20;;;;;;4882997;29;20994;-62
2022/07/12 01:51:12;;;;;;;0.90;0.90;;;23.10;48.20;;;;;;4887984;29;20199;-60
2022/07/12 01:53:39;;;;;;;1.07;1.07;;;23.10;48.20;;;;;;4884704;29;20459;-58
2022/07/12 01:56:05;;;;;;;0.90;0.90;;;23.00;48.10;;;;;;4883477;29;20188;-58
2022/07/12 01:58:31;;;;;;;0.90;0.90;;;23.00;48.20;;;;;;4885439;29;21346;-59
2022/07/12 02:00:57;;;;;;;1.00;1.00;;;23.00;48.10;;;;;;4872957;29;20238;-57
2022/07/12 02:03:23;;;;;;;1.27;1.17;;;23.00;48.20;;;;;;4885687;29;20449;-58
2022/07/12 02:05:49;;;;;;;1.10;1.00;;;23.00;48.10;;;;;;4883737;29;20443;-57
2022/07/12 02:08:15;;;;;;;1.30;1.20;;;23.00;48.20;;;;;;4885992;29;20311;-63
2022/07/12 02:10:43;;;;;;;0.93;0.93;;;23.00;48.10;;;;;;4883196;29;21083;-59
2022/07/12 02:13:09;;;;;;;0.97;0.97;;;23.00;48.20;;;;;;4885625;29;20436;-56
2022/07/12 02:15:35;;;;;;;1.10;1.00;;;23.00;48.10;;;;;;4887428;29;20467;-57
2022/07/12 02:18:01;;;;;;;0.97;0.97;;;23.00;48.10;;;;;;4885275;29;20525;-63
2022/07/12 02:20:27;;;;;;;1.20;1.10;;;23.00;48.30;;;;;;4882933;29;20454;-60
2022/07/12 02:22:52;;;;;;;0.83;0.83;;;23.00;48.90;;;;;;4884510;29;20561;-63
2022/07/12 02:25:18;;;;;;;1.00;1.00;;;23.00;48.20;;;;;;4885726;29;21147;-57
2022/07/12 02:27:44;;;;;;;0.90;0.90;;;23.00;48.20;;;;;;4885707;29;20188;-57
2022/07/12 02:30:11;;;;;;;1.00;0.90;;;23.00;48.10;;;;;;4884233;29;20181;-66
2022/07/12 02:32:37;;;;;;;1.00;1.00;;;23.00;48.20;;;;;;4884709;29;21184;-61
2022/07/12 02:35:05;;;;;;;1.10;1.00;;;23.00;48.20;;;;;;4888603;29;20824;-57
2022/07/12 02:37:30;;;;;;;0.90;0.90;;;23.00;48.20;;;;;;4886320;29;20950;-60
2022/07/12 02:42:41;;;;;;;1.47;1.10;;;23.00;48.10;;;;;;4886236;29;20211;-58
2022/07/12 02:45:07;;;;;;;0.90;0.90;;;23.00;48.20;;;;;;4884409;29;20526;-64
2022/07/12 02:47:37;;;;;;;1.03;1.00;;;23.00;48.20;;;;;;4885347;29;20244;-63
2022/07/12 02:50:03;;;;;;;0.90;0.90;;;23.00;48.10;;;;;;4879824;29;20806;-61
2022/07/12 02:52:29;;;;;;;0.97;0.97;;;23.00;48.20;;;;;;4883558;29;20843;-58
2022/07/12 02:54:55;;;;;;;0.80;0.80;;;23.00;48.10;;;;;;4888799;29;20475;-57
2022/07/12 02:57:20;;;;;;;1.10;0.90;;;23.00;48.10;;;;;;4882267;29;20678;-61
2022/07/12 02:59:46;;;;;;;1.00;1.00;;;23.00;48.20;;;;;;4884170;29;20272;-58
2022/07/12 03:02:12;;;;;;;1.00;1.00;;;23.00;48.20;;;;;;4884812;29;20208;-61
2022/07/12 03:04:38;;;;;;;1.00;1.00;;;23.00;48.20;;;;;;4884567;29;20286;-68
2022/07/12 03:07:04;;;;;;;0.87;0.87;;;23.00;48.20;;;;;;4883828;29;20200;-59
2022/07/12 03:09:30;;;;;;;1.10;1.10;;;23.00;48.20;;;;;;4887472;29;20471;-57
2022/07/12 03:11:56;;;;;;;0.80;0.80;;;23.00;48.20;;;;;;4885026;29;20481;-57
2022/07/12 03:14:21;;;;;;;1.00;1.00;;;23.00;48.20;;;;;;4884126;29;20434;-61
2022/07/12 03:16:47;;;;;;;0.90;0.90;;;23.00;48.10;;;;;;4882160;29;20244;-60
2022/07/12 03:19:12;;;;;;;0.90;0.90;;;23.00;48.10;;;;;;4887336;29;20248;-61
2022/07/12 03:21:38;;;;;;;0.90;0.90;;;23.00;48.30;;;;;;4889640;29;20656;-57
2022/07/12 03:24:04;;;;;;;1.20;1.10;;;23.00;48.20;;;;;;4885582;29;20200;-57
2022/07/12 03:26:29;;;;;;;0.90;0.90;;;23.00;48.20;;;;;;4890678;29;20192;-60
2022/07/12 03:28:56;;;;;;;0.90;0.90;;;23.00;48.20;;;;;;4888903;29;20208;-58
2022/07/12 03:31:21;;;;;;;1.00;1.00;;;23.00;48.20;;;;;;4884621;29;20184;-59
2022/07/12 03:33:47;;;;;;;1.10;1.03;;;23.00;48.20;;;;;;4889485;29;20517;-59
2022/07/12 03:36:13;;;;;;;0.83;0.83;;;23.00;48.20;;;;;;4889185;29;20219;-61
2022/07/12 03:38:39;;;;;;;1.20;1.10;;;23.00;48.20;;;;;;4886105;29;20255;-58
2022/07/12 03:41:05;;;;;;;1.10;1.00;;;23.00;48.10;;;;;;4891012;29;20187;-57
2022/07/12 03:43:31;;;;;;;1.00;1.00;;;23.00;48.10;;;;;;4890544;29;20435;-57
2022/07/12 03:45:57;;;;;;;0.90;0.90;;;23.00;48.10;;;;;;4885654;29;21251;-59
2022/07/12 03:48:22;;;;;;;0.93;0.93;;;23.00;48.20;;;;;;4883940;29;20187;-61
2022/07/12 03:50:49;;;;;;;0.90;0.90;;;23.00;48.20;;;;;;4888654;29;20196;-57
2022/07/12 03:53:14;;;;;;;1.07;1.07;;;23.00;48.80;;;;;;4886442;29;20180;-58
2022/07/12 03:55:40;;;;;;;1.10;1.10;;;23.00;48.20;;;;;;4892012;29;20431;-56
2022/07/12 03:58:06;;;;;;;1.27;1.17;;;23.00;48.10;;;;;;4886565;29;21459;-57
2022/07/12 04:00:32;;;;;;;1.00;1.00;;;23.00;48.10;;;;;;4886066;29;20238;-59
2022/07/12 04:02:57;;;;;;;1.13;1.03;;;23.00;48.20;;;;;;4885521;29;20442;-57
2022/07/12 04:05:26;;;;;;;1.20;1.10;;;23.00;48.10;;;;;;4886547;29;20523;-57
2022/07/12 04:07:53;;;;;;;1.00;1.00;;;23.00;48.10;;;;;;4890121;29;20998;-58
2022/07/12 04:10:19;;;;;;;1.03;0.93;;;23.00;48.20;;;;;;4888159;29;20670;-57
2022/07/12 04:12:45;;;;;;;1.00;1.00;;;23.00;48.10;;;;;;4891580;29;21001;-59
2022/07/12 04:15:11;;;;;;;1.07;1.07;;;23.00;48.10;;;;;;4883382;29;20465;-57
2022/07/12 04:17:37;;;;;;;1.20;1.10;;;23.00;48.10;;;;;;4887365;29;20844;-59
2022/07/12 04:20:04;;;;;;;1.00;1.00;;;23.00;48.10;;;;;;4886638;29;20299;-57
2022/07/12 04:22:30;;;;;;;1.10;1.00;;;23.00;48.10;;;;;;4888389;29;20445;-57
2022/07/12 04:24:56;;;;;;;1.00;1.00;;;23.00;48.10;;;;;;4886816;29;20788;-56
2022/07/12 04:27:22;;;;;;;0.90;0.90;;;23.00;48.10;;;;;;4889001;29;20674;-59
2022/07/12 04:29:48;;;;;;;0.93;0.93;;;23.00;48.10;;;;;;4887290;29;20734;-59
2022/07/12 04:32:14;;;;;;;1.10;1.00;;;23.00;48.20;;;;;;4886599;29;20204;-58
2022/07/12 04:34:39;;;;;;;1.03;1.03;;;23.00;48.10;;;;;;4885890;29;20188;-58
2022/07/12 04:37:05;;;;;;;1.30;1.20;;;23.00;48.10;;;;;;4884598;29;20205;-57
2022/07/12 04:39:31;;;;;;;1.03;1.00;;;23.00;48.10;;;;;;4884003;29;20191;-59
2022/07/12 04:41:56;;;;;;;1.10;1.00;;;23.00;48.00;;;;;;4894499;29;20202;-59
2022/07/12 04:44:23;;;;;;;1.10;1.00;;;23.00;48.10;;;;;;4888924;29;20783;-57
2022/07/12 04:46:48;;;;;;;0.90;0.90;;;23.00;48.10;;;;;;4887037;29;20200;-60
2022/07/12 04:49:14;;;;;;;1.20;1.10;;;23.00;48.10;;;;;;4886013;29;20495;-60
2022/07/12 04:51:40;;;;;;;1.03;1.03;;;23.00;48.10;;;;;;4887017;29;20196;-56
2022/07/12 04:54:06;;;;;;;1.13;1.03;;;23.00;48.10;;;;;;4886408;29;20184;-57
2022/07/12 04:56:31;;;;;;;1.13;1.10;;;23.00;48.10;;;;;;4888377;29;20526;-58
2022/07/12 04:58:57;;;;;;;1.20;1.10;;;23.00;48.10;;;;;;4884141;29;20211;-57
2022/07/12 05:01:23;;;;;;;0.90;0.90;;;23.00;48.10;;;;;;4889771;29;20192;-59
2022/07/12 05:03:49;;;;;;;1.30;1.20;;;23.00;48.10;;;;;;4886443;29;20185;-58
2022/07/12 05:06:14;;;;;;;1.10;1.00;;;23.00;48.00;;;;;;4886097;29;20688;-68
2022/07/12 05:08:40;;;;;;;0.90;0.90;;;23.00;48.10;;;;;;4887190;29;20188;-60
2022/07/12 05:11:05;;;;;;;1.30;1.20;;;23.00;48.10;;;;;;4887714;29;20240;-57
2022/07/12 05:13:31;;;;;;;1.17;1.10;;;23.00;48.10;;;;;;4885013;29;20181;-59
2022/07/12 05:15:57;;;;;;;1.20;1.10;;;23.00;48.10;;;;;;4888345;29;20646;-60
2022/07/12 05:18:23;;;;;;;1.00;1.00;;;23.00;48.10;;;;;;4885240;29;20730;-56
2022/07/12 05:20:49;;;;;;;1.23;1.13;;;23.00;48.10;;;;;;4881277;29;20181;-59
2022/07/12 05:23:14;;;;;;;1.30;1.20;;;23.00;48.10;;;;;;4885421;29;20647;-59
2022/07/12 05:25:40;;;;;;;1.20;1.10;;;23.00;48.10;;;;;;4887434;29;20450;-57
2022/07/12 05:28:05;;;;;;;1.07;1.07;;;23.00;48.10;;;;;;4885778;29;20189;-57
2022/07/12 05:30:31;;;;;;;1.30;1.20;;;23.00;48.10;;;;;;4884400;29;20252;-57
2022/07/12 05:32:57;;;;;;;1.47;1.20;;;23.00;48.10;;;;;;4882565;29;20192;-58
2022/07/12 05:35:23;;;;;;;1.20;1.10;;;23.00;48.10;;;;;;4888707;29;20482;-58
2022/07/12 05:37:49;;;;;;;1.10;1.10;;;23.00;48.20;;;;;;4884660;29;20224;-58
2022/07/12 05:40:14;;;;;;;1.50;1.40;;;23.00;48.10;;;;;;4887844;29;20288;-57
2022/07/12 05:42:40;;;;;;;1.17;1.10;;;23.00;48.10;;;;;;4885026;29;20230;-57
2022/07/12 05:45:10;;;;;;;1.27;1.20;;;23.00;48.10;;;;;;4882573;29;20619;-58
2022/07/12 05:47:36;;;;;;;1.23;1.13;;;23.00;48.00;;;;;;4887281;29;20690;-57
2022/07/12 05:50:03;;;;;;;1.40;1.30;;;23.00;48.10;;;;;;4890517;29;20439;-65
2022/07/12 05:55:14;;;;;;;1.60;1.50;;;23.00;48.10;;;;;;4884896;29;20460;-57
2022/07/12 05:57:39;;;;;;;1.50;1.40;;;23.00;48.10;;;;;;4885012;29;20462;-57
2022/07/12 06:00:06;;;;;;;1.30;1.20;;;23.00;48.10;;;;;;4882664;29;20435;-57
2022/07/12 06:02:32;;;;;;;1.67;1.57;;;23.00;48.10;;;;;;4885813;29;20624;-58
2022/07/12 06:04:57;;;;;;;1.57;1.47;;;23.00;48.10;;;;;;4888547;29;20443;-68
2022/07/12 06:07:24;;;;;;;1.40;1.30;;;23.00;48.10;;;;;;4890022;29;20703;-61
2022/07/12 06:09:51;;;;;;;1.40;1.30;;;23.00;48.00;;;;;;4872189;29;20200;-68
2022/07/12 06:12:16;;;;;;;1.53;1.43;;;23.00;48.00;;;;;;4873676;29;20192;-61
2022/07/12 06:14:43;;;;;;;1.50;1.40;;;23.00;48.10;;;;;;4887481;29;20487;-59
2022/07/12 06:17:09;;;;;;;1.80;1.70;;;23.00;48.00;;;;;;4886737;29;20494;-60
2022/07/12 06:19:35;;;;;;;1.70;1.60;;;23.00;48.00;;;;;;4886071;29;20188;-57
2022/07/12 06:22:01;;;;;;;1.53;1.43;;;23.00;48.00;;;;;;4891082;29;20450;-63
2022/07/12 06:24:27;;;;;;;2.00;1.90;;;23.00;48.10;;;;;;4882413;29;20194;-57
2022/07/12 06:26:52;;;;;;;1.50;1.40;;;23.00;48.10;;;;;;4880782;29;20438;-60
2022/07/12 06:29:18;;;;;;;1.60;1.50;;;23.00;48.10;;;;;;4884464;29;20189;-57
2022/07/12 06:31:44;;;;;;;1.40;1.30;;;23.00;48.10;;;;;;4882986;29;20654;-58
2022/07/12 06:34:09;;;;;;;1.70;1.60;;;23.00;48.10;;;;;;4887346;29;20195;-60
2022/07/12 06:36:35;;;;;;;1.83;1.73;;;23.00;48.10;;;;;;4885741;29;20793;-57
2022/07/12 06:39:01;;;;;;;1.70;1.60;;;23.00;48.10;;;;;;4882574;29;20744;-62
2022/07/12 06:41:29;;;;;;;1.60;1.50;;;23.00;48.10;;;;;;4883906;29;20239;-62
2022/07/12 06:43:55;;;;;;;1.80;1.70;;;23.00;48.10;;;;;;4883590;29;20564;-58
2022/07/12 06:46:21;;;;;;;1.60;1.50;;;23.00;48.00;;;;;;4884673;29;20722;-62
2022/07/12 06:48:46;;;;;;;1.87;1.77;;;23.00;48.00;;;;;;4882788;29;20827;-61
2022/07/12 06:51:14;;;;;;;1.77;1.67;;;23.00;48.00;;;;;;4886955;29;20203;-60
2022/07/12 06:53:40;;;;;;;1.60;1.50;;;23.00;48.00;;;;;;4888262;29;20427;-57
2022/07/12 06:56:06;;;;;;;1.97;1.87;;;23.00;48.10;;;;;;4891486;29;20192;-57
2022/07/12 06:58:32;;;;;;;1.70;1.60;;;23.00;48.10;;;;;;4888594;29;20459;-58
2022/07/12 07:00:58;;;;;;;1.70;1.60;;;23.00;48.10;;;;;;4888599;29;20604;-59
2022/07/12 07:03:25;;;;;;;2.20;2.10;;;23.00;48.10;;;;;;4888499;29;20463;-60
2022/07/12 07:05:50;;;;;;;1.53;1.43;;;23.00;48.10;;;;;;4889214;29;20485;-59
2022/07/12 07:08:16;;;;;;;1.93;1.83;;;23.00;48.10;;;;;;4890066;29;20438;-56
2022/07/12 07:10:42;;;;;;;1.70;1.60;;;23.00;48.10;;;;;;4885698;29;20192;-61
2022/07/12 07:13:10;;;;;;;1.63;1.53;;;23.00;48.10;;;;;;4886096;29;20200;-57
2022/07/12 07:15:38;;;;;;;1.90;1.80;;;23.00;48.10;;;;;;4883561;29;20860;-57
2022/07/12 07:18:04;;;;;;;2.10;2.00;;;23.00;48.10;;;;;;4884585;29;20538;-57
2022/07/12 07:20:30;;;;;;;1.93;1.83;;;23.00;48.10;;;;;;4887622;29;20446;-60
2022/07/12 07:22:55;;;;;;;2.07;1.97;;;23.00;48.10;;;;;;4887741;29;20184;-59
2022/07/12 07:25:22;;;;;;;2.10;2.00;;;23.00;48.10;;;;;;4887201;29;20193;-60
2022/07/12 07:27:48;;;;;;;1.90;1.80;;;23.00;48.10;;;;;;4888216;29;20199;-58
2022/07/12 07:32:58;;;;;;;2.00;1.90;;;23.00;48.10;;;;;;4887350;29;20672;-57
2022/07/12 07:35:24;;;;;;;2.13;2.03;;;23.00;48.10;;;;;;4888678;29;20439;-61
2022/07/12 07:37:50;;;;;;;2.17;2.07;;;23.00;48.10;;;;;;4889041;29;20541;-58
2022/07/12 07:40:15;;;;;;;1.90;1.80;;;23.00;48.10;;;;;;4887128;29;20197;-57
2022/07/12 07:42:41;;;;;;;2.07;1.97;;;23.00;48.10;;;;;;4889815;29;20963;-58
2022/07/12 07:45:08;;;;;;;1.97;1.87;;;23.00;48.10;;;;;;4890142;29;20865;-58
2022/07/12 07:47:48;;;;;;;2.10;2.00;;;23.00;48.10;;;;;;4888797;29;20599;-58
2022/07/12 07:50:14;;;;;;;2.20;2.10;;;23.00;48.10;;;;;;4886385;29;20432;-62
2022/07/12 07:52:39;;;;;;;1.90;1.80;;;23.00;48.10;;;;;;4889917;29;20437;-62
2022/07/12 07:57:35;;;;;;;2.20;2.10;;;23.00;48.10;;;;;;4885923;29;20986;-58
2022/07/12 08:00:01;;;;;;;2.40;2.30;;;23.00;48.10;;;;;;4883573;29;20455;-57
2022/07/12 08:02:26;;;;;;;1.90;1.80;;;23.00;48.00;;;;;;4892302;29;20227;-57
2022/07/12 08:04:52;;;;;;;2.30;2.20;;;23.00;48.10;;;;;;4883489;29;20188;-57
2022/07/12 08:07:19;;;;;;;2.43;2.33;;;23.00;48.10;;;;;;4890072;29;20592;-57
2022/07/12 08:09:45;;;;;;;2.37;2.27;;;23.00;48.10;;;;;;4886951;29;20451;-57
2022/07/12 08:12:11;;;;;;;2.20;2.10;;;23.00;48.10;;;;;;4888083;29;20477;-60
2022/07/12 08:14:36;;;;;;;2.27;2.17;;;23.00;48.10;;;;;;4887909;29;20655;-57
2022/07/12 08:17:02;;;;;;;2.40;2.30;;;23.00;48.10;;;;;;4886597;29;20391;-67
2022/07/12 08:19:28;;;;;;;1.90;1.80;;;23.00;48.20;;;;;;4883338;29;20566;-57
2022/07/12 08:21:54;;;;;;;2.27;2.17;;;23.00;48.10;;;;;;4888760;29;20235;-58
2022/07/12 08:24:19;;;;;;;2.37;2.27;;;23.00;48.80;;;;;;4887054;29;20188;-57
2022/07/12 08:26:45;;;;;;;2.53;2.43;;;23.00;48.10;;;;;;4886141;29;20778;-58
2022/07/12 08:29:11;;;;;;;2.47;2.37;;;23.00;48.10;;;;;;4886853;29;20707;-59
2022/07/12 08:31:37;;;;;;;2.10;2.00;;;23.00;48.10;;;;;;4885751;29;20193;-58
2022/07/12 08:34:02;;;;;;;2.70;2.60;;;23.00;48.10;;;;;;4887655;29;20192;-62
2022/07/12 08:36:29;;;;;;;2.60;2.50;;;23.00;48.10;;;;;;4883078;29;20232;-61
2022/07/12 08:38:55;;;;;;;2.20;2.10;;;23.00;48.10;;;;;;4889782;29;20247;-63
2022/07/12 08:41:20;;;;;;;2.50;2.40;;;23.00;48.10;;;;;;4885874;29;20989;-56
2022/07/12 08:43:47;;;;;;;2.20;2.10;;;23.00;48.10;;;;;;4884264;29;20920;-57
2022/07/12 08:46:14;;;;;;;2.87;2.73;;;23.00;48.10;;;;;;4887177;29;20184;-57
2022/07/12 08:48:42;;;;;;;3.07;2.90;;;23.00;48.10;;;;;;4889588;29;20922;-59
2022/07/12 08:51:10;;;;;;;2.30;2.20;;;23.10;48.10;;;;;;4885858;29;20950;-57
2022/07/12 08:53:37;;;;;;;2.20;2.10;;;23.00;48.20;;;;;;4886876;29;21300;-57
2022/07/12 08:56:04;;;;;;;2.70;2.60;;;23.00;48.10;;;;;;4883433;29;20511;-61
2022/07/12 08:58:30;;;;;;;2.40;2.30;;;23.00;48.80;;;;;;4888322;29;20470;-58
2022/07/12 09:00:56;;;;;;;2.03;1.93;;;23.00;48.10;;;;;;4887194;29;20466;-63
2022/07/12 09:03:21;;;;;;;2.60;2.50;;;23.00;48.10;;;;;;4887544;29;20188;-58
2022/07/12 09:05:54;;;;;;;2.20;2.10;;;23.00;48.10;;;;;;4887480;29;20442;-61
2022/07/12 09:08:33;;;;;;;2.27;2.17;;;23.00;48.10;;;;;;4889088;29;20196;-57
2022/07/12 09:11:01;;;;;;;2.60;2.50;;;23.00;48.10;;;;;;4883879;29;20447;-60
2022/07/12 09:13:50;;;;;;;2.23;2.13;;;23.00;48.10;;;;;;4887923;29;20440;-61
2022/07/12 09:16:17;;;;;;;2.30;2.20;;;23.00;48.10;;;;;;4889643;29;20463;-58
2022/07/12 09:18:44;;;;;;;2.30;2.20;;;23.00;48.10;;;;;;4886773;29;20449;-59
2022/07/12 09:21:20;;;;;;;2.50;2.40;;;23.00;48.10;;;;;;4884971;29;20432;-60
2022/07/12 09:23:56;;;;;;;2.50;2.40;;;23.00;48.10;;;;;;4889295;29;20462;-61
2022/07/12 09:26:23;;;;;;;2.83;2.70;;;23.00;48.10;;;;;;4885718;29;20441;-59
2022/07/12 09:28:51;;;;;;;3.43;3.23;;;23.00;48.10;;;;;;4883785;29;20514;-67
2022/07/12 09:31:17;;;;;;;2.30;2.20;;;23.00;48.10;;;;;;4887120;29;20427;-61
2022/07/12 09:36:55;;;;;;;2.73;2.63;;;23.00;48.10;;;;;;4882997;29;20210;-62
2022/07/12 09:39:23;;;;;;;2.30;2.20;;;23.00;48.20;;;;;;4883934;29;20946;-58
2022/07/12 09:41:49;;;;;;;2.70;2.60;;;23.00;48.10;;;;;;4886214;29;20450;-57
2022/07/12 09:44:15;;;;;;;2.97;2.87;;;23.00;48.20;;;;;;4882477;29;20427;-58
2022/07/12 09:46:43;;;;;;;2.60;2.50;;;23.00;48.10;;;;;;4883003;29;20189;-60
2022/07/12 09:49:10;;;;;;;2.60;2.50;;;23.00;48.10;;;;;;4880332;29;20443;-57
2022/07/12 09:51:39;;;;;;;2.43;2.33;;;23.10;48.20;;;;;;4887488;29;20818;-57
2022/07/12 09:54:07;;;;;;;2.80;2.60;;;23.00;48.10;;;;;;4887168;29;20429;-58
2022/07/12 09:56:35;;;;;;;2.53;2.40;;;23.10;48.20;;;;;;4890214;29;20443;-57
2022/07/12 09:59:01;;;;;;;2.50;2.40;;;23.00;48.10;;;;;;4881324;29;20818;-57
2022/07/12 10:01:30;;;;;;;2.57;2.47;;;23.10;48.10;;;;;;4883439;29;20522;-57
2022/07/12 10:03:59;;;;;;;2.20;2.10;;;23.10;48.10;;;;;;4885543;29;20443;-57
2022/07/12 10:06:29;;;;;;;2.70;2.50;;;23.10;48.20;;;;;;4885521;29;20539;-57
2022/07/12 10:08:56;;;;;;;2.60;2.50;;;23.10;48.20;;;;;;4889073;29;20906;-68
2022/07/12 10:11:24;;;;;;;2.13;2.03;;;23.00;48.20;;;;;;4882543;29;20443;-57
2022/07/12 10:13:51;;;;;;;2.40;2.30;;;23.10;48.20;;;;;;4886770;29;20431;-62
2022/07/12 10:16:26;;;;;;;2.60;2.50;;;23.10;48.20;;;;;;4884879;29;20440;-57
2022/07/12 10:19:35;;;;;;;2.37;2.27;;;23.10;48.20;;;;;;4885746;29;20498;-59
2022/07/12 10:22:03;;;;;;;2.33;2.23;;;23.10;48.10;;;;;;4885816;29;20475;-65
2022/07/12 10:24:31;;;;;;;2.43;2.33;;;23.00;48.20;;;;;;4884813;29;20450;-57
2022/07/12 10:26:58;;;;;;;2.43;2.33;;;23.00;48.20;;;;;;4885511;29;20504;-60
2022/07/12 10:29:25;;;;;;;2.60;2.50;;;23.10;48.30;;;;;;4889834;29;20463;-58
2022/07/12 10:31:52;;;;;;;2.17;2.07;;;23.10;48.20;;;;;;4884829;29;20772;-60
2022/07/12 10:34:27;;;;;;;2.53;2.43;;;23.00;48.10;;;;;;4883266;29;20448;-57
2022/07/12 10:36:56;;;;;;;2.83;2.63;;;23.10;48.20;;;;;;4881981;29;20473;-60
2022/07/12 10:39:22;;;;;;;2.40;2.30;;;23.10;48.30;;;;;;4886101;29;20468;-61
2022/07/12 10:42:13;;;;;;;2.43;2.33;;;23.00;48.20;;;;;;4889402;29;20427;-58
2022/07/12 10:44:41;;;;;;;2.67;2.57;;;23.10;48.20;;;;;;4888635;29;20471;-56
2022/07/12 10:47:08;;;;;;;2.40;2.30;;;23.00;48.20;;;;;;4879984;29;20496;-62
2022/07/12 10:49:35;;;;;;;2.53;2.43;;;23.00;48.20;;;;;;4887585;29;20430;-58
2022/07/12 10:52:10;;;;;;;2.60;2.50;;;23.10;48.20;;;;;;4885961;29;20937;-57
2022/07/12 10:54:41;;;;;;;2.63;2.53;;;23.10;48.20;;;;;;4884952;29;20434;-57
2022/07/12 10:57:08;;;;;;;2.17;2.07;;;23.00;48.20;;;;;;4884577;29;20584;-60
2022/07/12 10:59:36;;;;;;;2.80;2.60;;;23.10;48.20;;;;;;4885863;29;20457;-58
2022/07/12 11:02:02;;;;;;;2.57;2.47;;;23.10;48.20;;;;;;4880939;29;21273;-58
2022/07/12 11:04:28;;;;;;;2.27;2.17;;;23.00;48.20;;;;;;4882189;29;20495;-58
2022/07/12 11:06:58;;;;;;;2.33;2.23;;;23.00;48.10;;;;;;4882956;29;20439;-57
2022/07/12 11:09:25;;;;;;;2.20;2.10;;;23.10;48.20;;;;;;4885045;29;20443;-58
2022/07/12 11:11:52;;;;;;;2.40;2.30;;;23.10;48.20;;;;;;4883793;29;20438;-57
2022/07/12 11:14:24;;;;;;;2.23;2.13;;;23.10;48.20;;;;;;4884992;29;20427;-57
2022/07/12 11:16:52;;;;;;;2.40;2.30;;;23.10;49.00;;;;;;4881593;29;20525;-60
2022/07/12 11:19:23;;;;;;;1.90;1.80;;;23.10;48.10;;;;;;4879835;29;20509;-62
2022/07/12 11:21:55;;;;;;;2.00;1.90;;;23.10;48.20;;;;;;4883385;29;20440;-60
2022/07/12 11:24:23;;;;;;;2.40;2.20;;;23.10;48.20;;;;;;4885184;29;20442;-62
2022/07/12 11:26:49;;;;;;;2.27;2.17;;;23.10;48.20;;;;;;4887522;29;21109;-60
2022/07/12 11:29:16;;;;;;;2.30;2.20;;;23.10;48.20;;;;;;4884358;29;20423;-60
2022/07/12 11:31:43;;;;;;;2.07;1.97;;;23.10;48.20;;;;;;4881106;29;20439;-59
2022/07/12 11:34:20;;;;;;;2.20;2.10;;;23.10;48.20;;;;;;4883832;29;20438;-56
2022/07/12 11:36:46;;;;;;;2.50;2.40;;;23.10;48.20;;;;;;4885866;29;21268;-63
2022/07/12 11:39:12;;;;;;;2.47;2.37;;;23.10;48.20;;;;;;4885433;29;20439;-62
2022/07/12 11:41:38;;;;;;;2.60;2.50;;;23.10;49.00;;;;;;4888174;29;20945;-59
2022/07/12 11:44:04;;;;;;;2.40;2.30;;;23.10;48.20;;;;;;4893707;29;20625;-57
2022/07/12 11:46:30;;;;;;;2.10;2.00;;;23.10;48.10;;;;;;4886328;29;20439;-62
2022/07/12 11:48:55;;;;;;;2.10;2.00;;;23.10;48.20;;;;;;4886795;29;20201;-57
2022/07/12 11:51:27;;;;;;;2.20;2.10;;;23.10;48.20;;;;;;4888510;29;20200;-57
2022/07/12 11:53:55;;;;;;;2.77;2.57;;;23.10;48.20;;;;;;4889744;29;20188;-57
2022/07/12 11:56:31;;;;;;;1.97;1.87;;;23.10;48.20;;;;;;4883606;29;20432;-57
2022/07/12 11:58:57;;;;;;;2.10;2.00;;;23.10;48.20;;;;;;4888025;29;20455;-67
2022/07/12 12:01:23;;;;;;;2.23;2.13;;;23.10;48.20;;;;;;4888050;29;20436;-61
2022/07/12 12:03:49;;;;;;;1.97;1.87;;;23.10;48.20;;;;;;4888828;29;20521;-57
2022/07/12 12:06:15;;;;;;;2.00;1.90;;;23.10;48.20;;;;;;4887614;29;20180;-58
2022/07/12 12:08:42;;;;;;;2.20;2.10;;;23.10;48.20;;;;;;4888740;29;20439;-57
2022/07/12 12:11:07;;;;;;;2.13;2.03;;;23.10;48.20;;;;;;4886373;29;20191;-67
2022/07/12 12:13:33;;;;;;;2.20;2.10;;;23.10;48.20;;;;;;4886883;29;20451;-57
2022/07/12 12:16:02;;;;;;;2.00;1.90;;;23.10;48.10;;;;;;4887510;29;20640;-59
2022/07/12 12:18:46;;;;;;;2.00;1.90;;;23.10;48.20;;;;;;4885671;29;20506;-57
2022/07/12 12:21:12;;;;;;;2.03;1.93;;;23.10;48.20;;;;;;4888714;29;20436;-60
2022/07/12 12:23:42;;;;;;;2.17;2.07;;;23.10;48.20;;;;;;4887047;29;20466;-59
2022/07/12 12:26:17;;;;;;;1.80;1.70;;;23.10;48.20;;;;;;4887442;29;20462;-58
2022/07/12 12:28:44;;;;;;;2.00;1.90;;;23.10;48.20;;;;;;4889242;29;20451;-57
2022/07/12 12:31:11;;;;;;;1.90;1.80;;;23.10;48.20;;;;;;4889424;29;20451;-59
2022/07/12 12:33:45;;;;;;;2.00;1.90;;;23.10;48.30;;;;;;4883965;29;20555;-57
2022/07/12 12:36:24;;;;;;;1.90;1.80;;;23.10;48.30;;;;;;4888786;29;20445;-58
2022/07/12 12:38:57;;;;;;;2.10;2.00;;;23.10;48.20;;;;;;4885244;29;20439;-58
2022/07/12 12:41:26;;;;;;;2.07;1.97;;;23.10;48.20;;;;;;4885867;29;20454;-58
2022/07/12 12:44:04;;;;;;;2.23;2.13;;;23.10;48.20;;;;;;4888452;29;20435;-57
2022/07/12 12:46:55;;;;;;;2.30;2.20;;;23.10;48.20;;;;;;4885631;29;20436;-56
2022/07/12 12:49:50;;;;;;;2.10;2.00;;;23.00;48.20;;;;;;4885892;29;20486;-58
2022/07/12 12:52:16;;;;;;;2.00;1.90;;;23.10;48.20;;;;;;4888764;29;20443;-57
2022/07/12 12:54:44;;;;;;;2.20;2.10;;;23.00;48.20;;;;;;4883049;29;20458;-60
2022/07/12 12:57:10;;;;;;;1.90;1.80;;;23.00;48.20;;;;;;4884629;29;20474;-60
2022/07/12 12:59:36;;;;;;;1.93;1.83;;;23.10;48.20;;;;;;4884793;29;20442;-57
2022/07/12 13:02:04;;;;;;;1.80;1.70;;;23.10;48.20;;;;;;4887856;29;20849;-59